SBOSBO HER / LGIR
Speedbird OnlineSpeedbird Online HER / LGIR

Heraklion International Nikos Kazantzakis Airport
11:21 21.1°C

Location Heraklion, Greece
Latitude: 35.3396987915
Longitude: 25.180299758900002
Web Wikipedia
Altitude 35 Meter / 115 Feet
Distance 2,683 KM / 1,667 Miles
from London.
Time Zone UTC +3 hours (Europe/Athens)
Codes IATA: HER
ICAO: LGIR
Currency £1 equals EUR 1.15
Runways
RunwayLength (m)Surface
092682Asphalt
121566Asphalt
18780Asphalt
272682Asphalt
301566Asphalt
36780Asphalt
Radio
TypeDescriptionFrequency
A/GKAZANTZAKIS RDO563.7
APPIRAKLION APP123.975
ATISATIS127.55
DIRIRAKLION DIRECTOR118.025
GNDKAZANTZAKIS GND121.7
TRSAIRAKLION RADAR123.975
TWRKAZANTZAKIS TWR120.85
Live ATC
METAR LGIR 060750Z 32017KT 9999 SCT020 21/11 Q1021 NOSIG
TAF TAF LGIR 060500Z 0606/0706 32019KT 9999 SCT020 SCT070 TEMPO 0606/0622 34019G29KT PROB40 TEMPO 0617/0706 5000 RA FEW018TCU BKN025
Weather As Of 06 Oct 2022 11:21
Description Scattered clouds
Wind 32 km/h from North-West (320°)
Cloud Cover 40%
Precipitation Rain: none, Snow: none
Sunrise 07:17
Sunset 18:57
Lounges Skyserv Lounge (Temporarily Closed), Main Terminal
Rotations During the last 90 days there were
99 flights from LHR
45 flights from LGW
97 flights to LHR
45 flights to LGW
1 flights to ATH


© 2017-2022 Speedbird Online